createdAt,value
2018-10-02T00:01:12.262Z,100877.61
2018-10-02T00:03:36.100Z,100879.11
2018-10-02T00:05:59.951Z,100870.87
2018-10-02T00:08:24.022Z,100879.03
2018-10-02T00:10:53.029Z,100871.00
2018-10-02T00:13:22.314Z,100874.52
2018-10-02T00:15:46.162Z,100878.91
2018-10-02T00:18:10.024Z,100873.48
2018-10-02T00:20:33.867Z,100882.31
2018-10-02T00:22:57.758Z,100869.28
2018-10-02T00:25:21.602Z,100870.49
2018-10-02T00:27:45.454Z,100872.66
2018-10-02T00:30:09.365Z,100868.28
2018-10-02T00:32:33.286Z,100739.66
2018-10-02T00:34:57.211Z,100870.91
2018-10-02T00:37:21.065Z,100866.31
2018-10-02T00:39:44.895Z,100873.22
2018-10-02T00:42:09.279Z,100870.94
2018-10-02T00:44:33.140Z,100876.11
2018-10-02T00:46:57.038Z,100876.45
2018-10-02T00:49:20.889Z,100872.70
2018-10-02T00:51:44.711Z,100871.36
2018-10-02T00:54:08.603Z,100878.73
2018-10-02T00:56:32.443Z,100876.35
2018-10-02T00:58:56.310Z,100869.91
2018-10-02T01:01:20.196Z,100871.59
2018-10-02T01:03:44.112Z,100876.27
2018-10-02T01:06:08.097Z,100875.52
2018-10-02T01:08:31.960Z,100878.28
2018-10-02T01:10:55.809Z,100882.38
2018-10-02T01:13:19.664Z,100887.15
2018-10-02T01:15:43.505Z,100878.80
2018-10-02T01:18:07.436Z,100884.80
2018-10-02T01:20:31.399Z,100884.03
2018-10-02T01:22:55.875Z,100875.58
2018-10-02T01:25:19.794Z,100878.03
2018-10-02T01:27:43.655Z,100871.37
2018-10-02T01:30:07.844Z,100865.89
2018-10-02T01:32:31.710Z,100863.06
2018-10-02T01:34:55.576Z,100864.12
2018-10-02T01:37:19.445Z,100865.69
2018-10-02T01:39:43.312Z,100869.41
2018-10-02T01:42:07.180Z,100875.04
2018-10-02T01:44:31.025Z,100868.59
2018-10-02T01:46:54.957Z,100868.20
2018-10-02T01:49:18.779Z,100861.92
2018-10-02T01:51:42.726Z,100857.17
2018-10-02T01:54:06.570Z,100852.03
2018-10-02T01:56:30.408Z,100849.25
2018-10-02T01:58:54.352Z,100854.31
2018-10-02T02:01:18.224Z,100847.42
2018-10-02T02:03:42.065Z,100853.52
2018-10-02T02:06:05.961Z,100848.55
2018-10-02T02:08:29.803Z,100846.45
2018-10-02T02:10:53.668Z,100846.75
2018-10-02T02:13:17.491Z,100840.53
2018-10-02T02:15:41.441Z,100838.66
2018-10-02T02:18:05.782Z,100812.91
2018-10-02T02:20:29.634Z,100834.76
2018-10-02T02:22:53.475Z,100824.73
2018-10-02T02:25:17.503Z,100820.67
2018-10-02T02:27:41.416Z,100819.23
2018-10-02T02:30:05.596Z,100818.59
2018-10-02T02:32:29.431Z,100817.73
2018-10-02T02:34:53.298Z,100815.05
2018-10-02T02:37:17.161Z,100807.59
2018-10-02T02:39:41.010Z,100809.23
2018-10-02T02:42:04.935Z,100818.04
2018-10-02T02:44:28.871Z,100833.26
2018-10-02T02:46:52.705Z,100821.66
2018-10-02T02:49:21.963Z,100824.63
2018-10-02T02:51:45.825Z,100834.64
2018-10-02T02:54:09.694Z,100829.30
2018-10-02T02:56:33.556Z,100834.84
2018-10-02T02:58:58.438Z,100826.48
2018-10-02T03:01:22.330Z,100811.97
2018-10-02T03:03:46.151Z,100817.35
2018-10-02T03:06:10.339Z,100818.10
2018-10-02T03:08:34.252Z,100825.39
2018-10-02T03:10:58.103Z,100820.28
2018-10-02T03:13:22.139Z,100818.52
2018-10-02T03:15:46.067Z,100817.52
2018-10-02T03:18:09.984Z,100821.45
2018-10-02T03:20:33.827Z,100822.86
2018-10-02T03:22:57.728Z,100806.84
2018-10-02T03:25:21.561Z,100810.99
2018-10-02T03:27:45.375Z,100811.15
2018-10-02T03:30:09.240Z,100809.80
2018-10-02T03:32:33.092Z,100807.63
2018-10-02T03:34:56.960Z,100800.15
2018-10-02T03:37:20.807Z,100806.32
2018-10-02T03:39:44.636Z,100804.84
2018-10-02T03:42:08.567Z,100803.05
2018-10-02T03:44:32.411Z,100797.23
2018-10-02T03:46:56.259Z,100791.38
2018-10-02T03:49:20.114Z,100780.06
2018-10-02T03:51:43.968Z,100788.09
2018-10-02T03:54:07.838Z,100788.64
2018-10-02T03:56:31.691Z,100791.02
2018-10-02T03:58:55.564Z,100791.61
2018-10-02T04:01:19.414Z,100787.19
2018-10-02T04:03:43.280Z,100781.82
2018-10-02T04:06:07.171Z,100775.78
2018-10-02T04:08:31.030Z,100783.20
2018-10-02T04:10:54.893Z,100782.61
2018-10-02T04:13:18.829Z,100783.20
2018-10-02T04:15:42.613Z,100783.81
2018-10-02T04:18:06.443Z,100784.98
2018-10-02T04:20:30.696Z,100785.03
2018-10-02T04:22:54.510Z,100781.27
2018-10-02T04:25:18.335Z,100771.82
2018-10-02T04:27:42.221Z,100768.45
2018-10-02T04:30:06.519Z,100757.77
2018-10-02T04:32:30.386Z,100747.20
2018-10-02T04:34:54.214Z,100742.98
2018-10-02T04:37:18.265Z,100741.86
2018-10-02T04:39:42.182Z,100756.22
2018-10-02T04:42:06.044Z,100759.77
2018-10-02T04:44:29.906Z,100761.70
2018-10-02T04:46:53.799Z,100758.31
2018-10-02T04:49:17.660Z,100747.80
2018-10-02T04:51:41.511Z,100764.04
2018-10-02T04:54:05.620Z,100748.73
2018-10-02T04:56:29.464Z,100759.42
2018-10-02T04:58:53.300Z,100758.19
2018-10-02T05:01:17.148Z,100756.48
2018-10-02T05:03:41.005Z,100756.73
2018-10-02T05:06:04.887Z,100758.73
2018-10-02T05:08:28.787Z,100766.14
2018-10-02T05:10:52.645Z,100760.83
2018-10-02T05:13:16.577Z,100759.59
2018-10-02T05:15:40.405Z,100751.59
2018-10-02T05:18:04.310Z,100754.32
2018-10-02T05:20:28.194Z,100752.55
2018-10-02T05:22:52.056Z,100765.72
2018-10-02T05:25:15.923Z,100774.62
2018-10-02T05:27:39.821Z,100769.85
2018-10-02T05:30:03.692Z,100787.85
2018-10-02T05:32:27.608Z,100778.99
2018-10-02T05:34:51.496Z,100770.48
2018-10-02T05:37:15.366Z,100765.91
2018-10-02T05:39:39.584Z,100764.83
2018-10-02T05:42:03.516Z,100762.82
2018-10-02T05:44:27.368Z,100762.24
2018-10-02T05:46:51.202Z,100756.27
2018-10-02T05:49:15.069Z,100753.18
2018-10-02T05:51:39.019Z,100755.48
2018-10-02T05:54:02.899Z,100753.30
2018-10-02T05:56:26.775Z,100745.77
2018-10-02T05:58:50.813Z,100746.09
2018-10-02T06:01:14.696Z,100739.47
2018-10-02T06:03:38.570Z,100736.61
2018-10-02T06:06:02.450Z,100746.82
2018-10-02T06:08:26.342Z,100743.97
2018-10-02T06:10:50.192Z,100755.12
2018-10-02T06:13:14.083Z,100754.27
2018-10-02T06:15:37.938Z,100755.48
2018-10-02T06:18:01.829Z,100751.66
2018-10-02T06:20:25.694Z,100751.30
2018-10-02T06:22:49.550Z,100754.09
2018-10-02T06:25:13.382Z,100752.86
2018-10-02T06:27:37.263Z,100758.93
2018-10-02T06:30:01.135Z,100747.80
2018-10-02T06:32:25.011Z,100749.21
2018-10-02T06:34:48.824Z,100750.36
2018-10-02T06:37:12.647Z,100753.35
2018-10-02T06:39:36.542Z,100753.72
2018-10-02T06:42:01.211Z,100748.25
2018-10-02T06:44:25.146Z,100744.72
2018-10-02T06:46:48.986Z,100740.69
2018-10-02T06:49:12.871Z,100745.92
2018-10-02T06:51:36.836Z,100737.38
2018-10-02T06:54:00.669Z,100732.45
2018-10-02T06:56:24.595Z,100728.46
2018-10-02T06:58:48.437Z,100728.91
2018-10-02T07:01:12.291Z,100733.05
2018-10-02T07:03:36.169Z,100730.98
2018-10-02T07:06:00.035Z,100727.61
2018-10-02T07:08:23.948Z,100727.92
2018-10-02T07:10:47.883Z,100730.09
2018-10-02T07:13:11.838Z,100723.06
2018-10-02T07:15:35.759Z,100730.06
2018-10-02T07:17:59.592Z,100721.85
2018-10-02T07:20:23.558Z,100722.61
2018-10-02T07:22:47.375Z,100713.75
2018-10-02T07:25:11.450Z,100727.84
2018-10-02T07:27:35.382Z,100711.70
2018-10-02T07:29:59.212Z,100715.96
2018-10-02T07:32:23.135Z,100709.81
2018-10-02T07:34:46.985Z,100707.30
2018-10-02T07:37:10.867Z,100706.38
2018-10-02T07:39:34.713Z,100717.23
2018-10-02T07:41:58.624Z,100712.04
2018-10-02T07:44:22.518Z,100700.88
2018-10-02T07:46:46.453Z,100696.34
2018-10-02T07:49:10.304Z,100695.48
2018-10-02T07:51:35.078Z,100703.47
2018-10-02T07:53:59.087Z,100683.92
2018-10-02T07:56:23.918Z,100685.09
2018-10-02T07:58:47.803Z,100682.38
2018-10-02T08:01:11.686Z,100666.41
2018-10-02T08:03:35.552Z,100670.95
2018-10-02T08:05:59.526Z,100677.41
2018-10-02T08:08:23.402Z,100670.42
2018-10-02T08:10:47.310Z,100667.37
2018-10-02T08:13:11.159Z,100664.52
2018-10-02T08:15:35.067Z,100671.98
2018-10-02T08:17:59.049Z,100666.42
2018-10-02T08:20:22.897Z,100668.48
2018-10-02T08:22:46.745Z,100640.75
2018-10-02T08:25:10.643Z,100638.56
2018-10-02T08:27:34.512Z,100627.93
2018-10-02T08:29:58.526Z,100628.65
2018-10-02T08:32:22.381Z,100626.45
2018-10-02T08:34:46.585Z,100614.52
2018-10-02T08:37:10.432Z,100620.04
2018-10-02T08:39:34.300Z,100611.47
2018-10-02T08:41:58.273Z,100594.16
2018-10-02T08:44:22.120Z,100596.64
2018-10-02T08:46:46.012Z,100590.05
2018-10-02T08:49:09.898Z,100592.73
2018-10-02T08:51:33.766Z,100581.32
2018-10-02T08:53:57.776Z,100579.22
2018-10-02T08:56:21.597Z,100574.31
2018-10-02T08:58:45.555Z,100583.09
2018-10-02T09:01:09.890Z,100570.45
2018-10-02T09:03:33.731Z,100572.77
2018-10-02T09:05:57.654Z,100560.91
2018-10-02T09:08:21.492Z,100577.38
2018-10-02T09:10:45.604Z,100556.20
2018-10-02T09:13:09.526Z,100563.48
2018-10-02T09:15:33.436Z,100552.62
2018-10-02T09:17:57.348Z,100550.85
2018-10-02T09:20:21.211Z,100569.78
2018-10-02T09:22:45.088Z,100564.63
2018-10-02T09:25:09.023Z,100556.80
2018-10-02T09:27:32.897Z,100553.45
2018-10-02T09:30:02.028Z,100540.89
2018-10-02T09:32:31.392Z,100540.12
2018-10-02T09:35:00.656Z,100547.83
2018-10-02T09:37:29.891Z,100529.08
2018-10-02T09:39:59.097Z,100516.95
2018-10-02T09:42:28.221Z,100514.67
2018-10-02T09:44:52.114Z,100514.23
2018-10-02T09:47:16.021Z,100503.41
2018-10-02T09:49:40.027Z,100508.76
2018-10-02T09:52:03.874Z,100506.97
2018-10-02T09:54:27.820Z,100492.25
2018-10-02T09:56:51.660Z,100494.78
2018-10-02T09:59:16.357Z,100488.63
2018-10-02T10:01:45.488Z,100472.57
2018-10-02T10:04:09.484Z,100471.93
2018-10-02T10:06:33.382Z,100460.20
2018-10-02T10:08:57.486Z,100459.66
2018-10-02T10:11:21.387Z,100447.34
2018-10-02T10:13:45.302Z,100449.84
2018-10-02T10:16:09.207Z,100435.67
2018-10-02T10:18:33.123Z,100430.90
2018-10-02T10:20:57.242Z,100442.71
2018-10-02T10:23:21.112Z,100444.12
2018-10-02T10:25:44.992Z,100438.36
2018-10-02T10:28:08.864Z,100437.08
2018-10-02T10:30:32.773Z,100436.62
2018-10-02T10:32:56.695Z,100432.02
2018-10-02T10:35:20.626Z,100434.04
2018-10-02T10:37:44.555Z,100432.17
2018-10-02T10:40:08.500Z,100433.75
2018-10-02T10:42:32.705Z,100433.93
2018-10-02T10:44:56.689Z,100422.86
2018-10-02T10:47:20.696Z,100431.70
2018-10-02T10:49:44.587Z,100427.14
2018-10-02T10:52:08.541Z,100414.66
2018-10-02T10:54:32.596Z,100413.93
2018-10-02T10:56:56.497Z,100417.78
2018-10-02T10:59:20.602Z,100409.05
2018-10-02T11:01:44.448Z,100398.95
2018-10-02T11:04:08.362Z,100401.77
2018-10-02T11:06:32.298Z,100391.68
2018-10-02T11:08:56.157Z,100385.91
2018-10-02T11:11:20.051Z,100377.89
2018-10-02T11:13:43.942Z,100373.05
2018-10-02T11:16:07.951Z,100365.98
2018-10-02T11:18:31.865Z,100367.33
2018-10-02T11:20:55.960Z,100360.34
2018-10-02T11:23:19.858Z,100356.47
2018-10-02T11:25:43.812Z,100347.33
2018-10-02T11:28:07.646Z,100337.53
2018-10-02T11:30:31.551Z,100339.64
2018-10-02T11:32:55.435Z,100343.53
2018-10-02T11:35:19.389Z,100341.49
2018-10-02T11:37:43.505Z,100324.08
2018-10-02T11:40:07.371Z,100322.77
2018-10-02T11:42:31.283Z,100320.62
2018-10-02T11:44:55.218Z,100316.00
2018-10-02T11:47:19.113Z,100312.97
2018-10-02T11:49:43.051Z,100310.86
2018-10-02T11:52:06.984Z,100303.52
2018-10-02T11:54:30.885Z,100294.85
2018-10-02T11:56:54.805Z,100292.09
2018-10-02T11:59:18.657Z,100302.00
2018-10-02T12:01:42.541Z,100294.55
2018-10-02T12:04:06.556Z,100283.36
2018-10-02T12:06:30.481Z,100281.74
2018-10-02T12:08:54.421Z,100270.39
2018-10-02T12:11:18.282Z,100280.55
2018-10-02T12:13:42.237Z,100265.18
2018-10-02T12:16:06.040Z,100256.98
2018-10-02T12:18:30.024Z,100247.98
2018-10-02T12:20:53.929Z,100255.94
2018-10-02T12:23:17.811Z,100238.64
2018-10-02T12:25:41.702Z,100230.87
2018-10-02T12:28:05.609Z,100222.72
2018-10-02T12:30:29.520Z,100179.11
2018-10-02T12:32:53.449Z,100232.22
2018-10-02T12:35:17.334Z,100213.70
2018-10-02T12:37:41.220Z,100207.83
2018-10-02T12:40:05.237Z,100208.71
2018-10-02T12:42:29.202Z,100211.38
2018-10-02T12:44:53.120Z,100201.77
2018-10-02T12:47:17.017Z,100196.33
2018-10-02T12:49:40.947Z,100189.48
2018-10-02T12:52:04.821Z,100186.67
2018-10-02T12:54:28.773Z,100191.61
2018-10-02T12:56:52.680Z,100207.14
2018-10-02T12:59:16.547Z,100193.22
2018-10-02T13:01:40.473Z,100193.27
2018-10-02T13:04:04.394Z,100194.16
2018-10-02T13:06:28.424Z,100192.44
2018-10-02T13:08:52.345Z,100203.33
2018-10-02T13:11:16.236Z,100194.86
2018-10-02T13:13:40.246Z,100201.23
2018-10-02T13:16:04.127Z,100212.99
2018-10-02T13:18:27.989Z,100216.47
2018-10-02T13:20:51.868Z,100214.75
2018-10-02T13:23:15.793Z,100219.27
2018-10-02T13:25:39.734Z,100213.97
2018-10-02T13:28:03.635Z,100219.76
2018-10-02T13:30:27.602Z,100218.38
2018-10-02T13:32:51.510Z,100213.00
2018-10-02T13:35:15.397Z,100208.14
2018-10-02T13:37:39.515Z,100199.22
2018-10-02T13:40:03.467Z,100189.41
2018-10-02T13:42:27.550Z,100196.91
2018-10-02T13:44:51.441Z,100193.14
2018-10-02T13:47:16.167Z,100182.73
2018-10-02T13:49:40.082Z,100195.67
2018-10-02T13:52:04.039Z,100194.59
2018-10-02T13:54:27.999Z,100190.65
2018-10-02T13:56:51.913Z,100185.07
2018-10-02T13:59:15.976Z,100188.33
2018-10-02T14:01:39.829Z,100200.35
2018-10-02T14:04:03.733Z,100188.70
2018-10-02T14:06:27.784Z,100181.87
2018-10-02T14:08:51.653Z,100185.42
2018-10-02T14:11:15.656Z,100181.78
2018-10-02T14:13:39.572Z,100190.61
2018-10-02T14:16:03.459Z,100183.45
2018-10-02T14:18:27.404Z,100183.19
2018-10-02T14:20:51.295Z,100186.94
2018-10-02T14:23:15.215Z,100185.61
2018-10-02T14:25:39.095Z,100177.42
2018-10-02T14:28:03.043Z,100178.48
2018-10-02T14:30:26.917Z,100166.67
2018-10-02T14:32:50.852Z,100164.16
2018-10-02T14:35:14.932Z,100164.44
2018-10-02T14:37:38.796Z,100174.96
2018-10-02T14:40:02.700Z,100144.03
2018-10-02T14:42:26.614Z,100157.02
2018-10-02T14:44:50.540Z,100143.31
2018-10-02T14:47:15.180Z,100159.31
2018-10-02T14:49:39.170Z,100164.80
2018-10-02T14:52:03.253Z,100165.26
2018-10-02T14:54:27.268Z,100155.09
2018-10-02T14:56:51.201Z,100164.59
2018-10-02T14:59:15.159Z,100158.32
2018-10-02T15:01:39.066Z,100165.83
2018-10-02T15:04:02.947Z,100177.31
2018-10-02T15:06:26.944Z,100163.26
2018-10-02T15:08:50.874Z,100154.37
2018-10-02T15:11:14.749Z,100148.70
2018-10-02T15:13:38.705Z,100155.39
2018-10-02T15:16:02.613Z,100151.41
2018-10-02T15:18:26.594Z,100149.30
2018-10-02T15:20:50.482Z,100152.50
2018-10-02T15:23:14.396Z,100152.96
2018-10-02T15:25:38.303Z,100143.06
2018-10-02T15:28:02.197Z,100150.27
2018-10-02T15:30:26.413Z,100149.30
2018-10-02T15:32:50.369Z,100157.50
2018-10-02T15:35:14.367Z,100150.23
2018-10-02T15:37:38.366Z,100154.58
2018-10-02T15:40:02.244Z,100151.85
2018-10-02T15:42:26.243Z,100150.23
2018-10-02T15:44:50.174Z,100160.55
2018-10-02T15:47:14.182Z,100162.34
2018-10-02T15:49:38.079Z,100153.48
2018-10-02T15:52:01.933Z,100151.64
2018-10-02T15:54:25.875Z,100157.89
2018-10-02T15:56:49.751Z,100158.87
2018-10-02T15:59:13.675Z,100171.51
2018-10-02T16:01:37.696Z,100160.75
2018-10-02T16:04:01.602Z,100168.59
2018-10-02T16:06:25.532Z,100170.91
2018-10-02T16:08:49.453Z,100171.70
2018-10-02T16:11:13.414Z,100187.44
2018-10-02T16:13:37.223Z,100182.20
2018-10-02T16:16:01.210Z,100187.11
2018-10-02T16:18:25.154Z,100188.77
2018-10-02T16:20:49.064Z,100189.05
2018-10-02T16:23:12.959Z,100188.09
2018-10-02T16:25:36.844Z,100195.94
2018-10-02T16:28:01.074Z,100198.61
2018-10-02T16:30:24.990Z,100197.48
2018-10-02T16:32:48.899Z,100193.14
2018-10-02T16:35:12.792Z,100203.89
2018-10-02T16:37:36.920Z,100201.81
2018-10-02T16:40:00.817Z,100192.38
2018-10-02T16:42:24.772Z,100201.83
2018-10-02T16:44:48.715Z,100192.71
2018-10-02T16:47:12.709Z,100189.92
2018-10-02T16:49:36.484Z,100189.47
2018-10-02T16:52:00.439Z,100203.48
2018-10-02T16:54:24.344Z,100197.40
2018-10-02T16:56:48.270Z,100200.59
2018-10-02T16:59:12.154Z,100188.67
2018-10-02T17:01:36.062Z,100192.80
2018-10-02T17:03:59.998Z,100196.77
2018-10-02T17:06:23.890Z,100208.14
2018-10-02T17:08:47.914Z,100202.32
2018-10-02T17:11:11.865Z,100204.88
2018-10-02T17:13:35.777Z,100206.17
2018-10-02T17:15:59.725Z,100206.64
2018-10-02T17:18:23.661Z,100218.59
2018-10-02T17:20:47.686Z,100213.05
2018-10-02T17:23:11.582Z,100206.25
2018-10-02T17:25:35.509Z,100174.06
2018-10-02T17:27:59.457Z,100225.31
2018-10-02T17:30:23.381Z,100222.03
2018-10-02T17:32:47.325Z,100226.30
2018-10-02T17:35:11.258Z,100231.58
2018-10-02T17:37:35.170Z,100229.98
2018-10-02T17:39:59.091Z,100241.96
2018-10-02T17:42:23.033Z,100231.13
2018-10-02T17:44:47.263Z,100250.13
2018-10-02T17:47:11.371Z,100243.92
2018-10-02T17:49:35.374Z,100239.78
2018-10-02T17:51:59.296Z,100249.36
2018-10-02T17:54:23.200Z,100183.98
2018-10-02T17:56:47.111Z,100245.55
2018-10-02T17:59:11.069Z,100251.76
2018-10-02T18:01:35.044Z,100256.91
2018-10-02T18:03:58.986Z,100250.33
2018-10-02T18:06:22.946Z,100264.16
2018-10-02T18:08:46.860Z,100198.44
2018-10-02T18:11:10.854Z,100259.47
2018-10-02T18:13:34.746Z,100264.84
2018-10-02T18:15:58.678Z,100264.23
2018-10-02T18:18:22.601Z,100264.47
2018-10-02T18:20:46.530Z,100265.02
2018-10-02T18:23:10.519Z,100269.70
2018-10-02T18:25:34.522Z,100265.03
2018-10-02T18:27:58.397Z,100260.09
2018-10-02T18:30:22.322Z,100264.44
2018-10-02T18:32:46.274Z,100279.22
2018-10-02T18:35:10.217Z,100271.29
2018-10-02T18:37:34.167Z,100278.43
2018-10-02T18:39:58.109Z,100281.89
2018-10-02T18:42:22.036Z,100277.92
2018-10-02T18:44:45.925Z,100284.10
2018-10-02T18:47:09.887Z,100270.27
2018-10-02T18:49:33.982Z,100279.06
2018-10-02T18:51:57.897Z,100282.03
2018-10-02T18:54:21.801Z,100282.03
2018-10-02T18:56:45.822Z,100272.03
2018-10-02T18:59:09.793Z,100283.38
2018-10-02T19:01:33.693Z,100272.95
2018-10-02T19:03:57.630Z,100279.16
2018-10-02T19:06:21.594Z,100281.72
2018-10-02T19:08:50.856Z,100287.20
2018-10-02T19:11:20.169Z,100279.95
2018-10-02T19:13:44.053Z,100291.22
2018-10-02T19:16:13.203Z,100304.95
2018-10-02T19:18:37.346Z,100304.41
2018-10-02T19:21:01.230Z,100310.39
2018-10-02T19:23:25.207Z,100318.30
2018-10-02T19:25:54.388Z,100313.80
2018-10-02T19:28:18.369Z,100318.52
2018-10-02T19:30:47.639Z,100320.39
2018-10-02T19:33:11.545Z,100314.96
2018-10-02T19:35:35.460Z,100316.06
2018-10-02T19:38:04.745Z,100268.40
2018-10-02T19:40:28.712Z,100321.35
2018-10-02T19:42:52.655Z,100329.73
2018-10-02T19:45:22.070Z,100327.42
2018-10-02T19:47:46.027Z,100323.40
2018-10-02T19:50:09.992Z,100322.28
2018-10-02T19:52:33.919Z,100324.91
2018-10-02T19:54:57.814Z,100321.73
2018-10-02T19:57:21.726Z,100319.55
2018-10-02T19:59:45.707Z,100314.58
2018-10-02T20:02:09.633Z,100316.72
2018-10-02T20:04:33.736Z,100312.73
2018-10-02T20:06:57.691Z,100312.84
2018-10-02T20:09:21.680Z,100307.61
2018-10-02T20:11:45.622Z,100310.84
2018-10-02T20:14:10.085Z,100312.12
2018-10-02T20:16:34.100Z,100304.80
2018-10-02T20:18:58.083Z,100303.34
2018-10-02T20:21:22.070Z,100294.59
2018-10-02T20:23:46.025Z,100289.45
2018-10-02T20:26:09.937Z,100309.41
2018-10-02T20:28:33.867Z,100297.56
2018-10-02T20:30:57.784Z,100298.76
2018-10-02T20:33:21.732Z,100287.38
2018-10-02T20:35:45.629Z,100286.48
2018-10-02T20:38:09.552Z,100289.91
2018-10-02T20:40:33.475Z,100289.28
2018-10-02T20:42:57.413Z,100288.08
2018-10-02T20:45:21.385Z,100290.91
2018-10-02T20:47:45.302Z,100298.37
2018-10-02T20:50:09.392Z,100300.16
2018-10-02T20:52:33.326Z,100298.48
2018-10-02T20:54:57.267Z,100302.13
2018-10-02T20:57:21.191Z,100313.44
2018-10-02T20:59:45.120Z,100322.56
2018-10-02T21:02:09.073Z,100319.34
2018-10-02T21:04:32.998Z,100330.48
2018-10-02T21:06:56.965Z,100331.11
2018-10-02T21:09:20.898Z,100327.89
2018-10-02T21:11:44.963Z,100334.83
2018-10-02T21:14:08.884Z,100328.48
2018-10-02T21:16:32.789Z,100333.35
2018-10-02T21:18:56.886Z,100326.08
2018-10-02T21:21:20.842Z,100314.49
2018-10-02T21:23:44.707Z,100321.31
2018-10-02T21:26:08.609Z,100319.23
2018-10-02T21:28:32.641Z,100319.32
2018-10-02T21:30:56.557Z,100319.08
2018-10-02T21:33:20.456Z,100319.08
2018-10-02T21:35:44.623Z,100330.67
2018-10-02T21:38:08.549Z,100318.72
2018-10-02T21:40:32.428Z,100324.63
2018-10-02T21:42:56.600Z,100320.14
2018-10-02T21:45:20.562Z,100338.91
2018-10-02T21:47:44.762Z,100325.38
2018-10-02T21:50:08.659Z,100327.95
2018-10-02T21:52:32.572Z,100332.98
2018-10-02T21:54:56.531Z,100335.88
2018-10-02T21:57:20.432Z,100341.08
2018-10-02T21:59:44.418Z,100333.02
2018-10-02T22:02:08.342Z,100340.77
2018-10-02T22:04:32.243Z,100325.95
2018-10-02T22:06:56.157Z,100333.92
2018-10-02T22:09:20.068Z,100345.87
2018-10-02T22:11:44.010Z,100333.62
2018-10-02T22:14:07.967Z,100337.89
2018-10-02T22:16:31.830Z,100332.34
2018-10-02T22:18:55.740Z,100338.43
2018-10-02T22:21:19.650Z,100325.45
2018-10-02T22:23:43.561Z,100329.08
2018-10-02T22:26:07.459Z,100336.56
2018-10-02T22:28:31.308Z,100330.29
2018-10-02T22:30:55.221Z,100328.41
2018-10-02T22:33:19.212Z,100343.58
2018-10-02T22:35:43.043Z,100338.91
2018-10-02T22:38:06.934Z,100338.80
2018-10-02T22:40:30.843Z,100336.73
2018-10-02T22:42:54.790Z,100335.91
2018-10-02T22:45:18.656Z,100339.75
2018-10-02T22:47:42.581Z,100334.25
2018-10-02T22:50:06.571Z,100324.11
2018-10-02T22:52:30.441Z,100317.88
2018-10-02T22:54:54.365Z,100326.99
2018-10-02T22:57:18.218Z,100328.23
2018-10-02T22:59:42.126Z,100333.25
2018-10-02T23:02:05.992Z,100330.17
2018-10-02T23:04:29.877Z,100290.30
2018-10-02T23:06:53.782Z,100343.80
2018-10-02T23:09:17.735Z,100329.50
2018-10-02T23:11:41.712Z,100331.59
2018-10-02T23:14:05.625Z,100344.44
2018-10-02T23:16:29.480Z,100335.67
2018-10-02T23:18:53.394Z,100339.16
2018-10-02T23:21:17.282Z,100344.44
2018-10-02T23:23:41.140Z,100360.64
2018-10-02T23:26:05.060Z,100358.47
2018-10-02T23:28:28.983Z,100359.44
2018-10-02T23:30:52.921Z,100357.27
2018-10-02T23:33:16.815Z,100360.38
2018-10-02T23:35:40.679Z,100359.77
2018-10-02T23:38:04.560Z,100361.16
2018-10-02T23:40:28.446Z,100365.32
2018-10-02T23:42:52.367Z,100368.63
2018-10-02T23:45:16.294Z,100358.23
2018-10-02T23:47:40.239Z,100369.06
2018-10-02T23:50:04.306Z,100362.66
2018-10-02T23:52:28.152Z,100380.95
2018-10-02T23:54:52.090Z,100375.47
2018-10-02T23:57:15.962Z,100379.00
2018-10-02T23:59:39.854Z,100380.11
